Weather at Bamberger Ranch Airport [CLOSED]

Public forecast

Using degrees Fahrenheit for public forecast. Weather courtesy of forecast.io.

Closest aviation weather report (METAR) to Bamberger Ranch Airport

Closest report is Horseshoe Bay Resort Airpark, 19.4 nm (36.0 km) N. Retrieved 2022/01/17 03:15 UTC (0 seconds ago):

KDZB 170315Z AUTO 19003KT 10SM CLR 07/M06 A3006 RMK AO2 T00691057

Closest aviation forecast (TAF) to Bamberger Ranch Airport

Closest forecast is Austin Bergstrom International Airport, 38.9 nm (72.1 km) E. Retrieved 2022-01-17 00:22 UTC (3 hours ago):

TAF KAUS 162320Z 1700/1806 VRB03KT P6SM SKC FM172000 13005KT P6SM SKC